createdAt,value
2018-07-22T00:01:09.042Z,16.87
2018-07-22T00:03:37.197Z,15.03
2018-07-22T00:06:05.394Z,16.47
2018-07-22T00:08:33.542Z,15.90
2018-07-22T00:11:01.699Z,16.20
2018-07-22T00:13:29.834Z,15.50
2018-07-22T00:15:57.974Z,15.00
2018-07-22T00:18:26.134Z,15.27
2018-07-22T00:20:54.274Z,16.00
2018-07-22T00:23:22.430Z,15.40
2018-07-22T00:25:50.574Z,15.00
2018-07-22T00:28:18.731Z,15.00
2018-07-22T00:30:46.872Z,15.00
2018-07-22T00:33:15.028Z,15.60
2018-07-22T00:35:43.169Z,14.90
2018-07-22T00:38:11.099Z,14.73
2018-07-22T00:40:39.233Z,15.33
2018-07-22T00:43:07.427Z,15.10
2018-07-22T00:45:35.588Z,14.30
2018-07-22T00:48:03.754Z,15.67
2018-07-22T00:50:31.894Z,15.00
2018-07-22T00:53:00.058Z,15.67
2018-07-22T00:55:28.218Z,15.50
2018-07-22T00:57:56.370Z,15.20
2018-07-22T01:00:24.514Z,14.77
2018-07-22T01:02:52.706Z,15.97
2018-07-22T01:05:20.852Z,15.13
2018-07-22T01:07:48.990Z,15.90
2018-07-22T01:10:17.137Z,15.10
2018-07-22T01:12:45.258Z,16.10
2018-07-22T01:15:13.404Z,15.00
2018-07-22T01:17:41.530Z,15.10
2018-07-22T01:20:10.277Z,14.80
2018-07-22T01:22:38.749Z,15.23
2018-07-22T01:25:06.935Z,14.17
2018-07-22T01:27:35.046Z,15.70
2018-07-22T01:30:03.222Z,14.90
2018-07-22T01:32:31.378Z,14.60
2018-07-22T01:34:59.513Z,15.30
2018-07-22T01:37:27.637Z,14.93
2018-07-22T01:39:55.823Z,14.23
2018-07-22T01:42:24.970Z,14.87
2018-07-22T01:44:53.101Z,15.57
2018-07-22T01:47:21.230Z,15.87
2018-07-22T01:49:49.380Z,16.10
2018-07-22T01:52:17.640Z,17.10
2018-07-22T01:54:45.765Z,15.73
2018-07-22T01:57:13.898Z,15.93
2018-07-22T01:59:42.034Z,15.30
2018-07-22T02:02:10.130Z,16.17
2018-07-22T02:04:38.265Z,16.00
2018-07-22T02:07:06.402Z,15.20
2018-07-22T02:09:34.540Z,16.13
2018-07-22T02:12:02.671Z,15.93
2018-07-22T02:14:30.808Z,16.60
2018-07-22T02:16:59.030Z,17.07
2018-07-22T02:19:27.179Z,16.00
2018-07-22T02:21:55.298Z,16.77
2018-07-22T02:24:23.422Z,16.10
2018-07-22T02:26:51.551Z,16.90
2018-07-22T02:29:19.687Z,16.73
2018-07-22T02:31:47.822Z,16.60
2018-07-22T02:34:15.962Z,16.80
2018-07-22T02:36:44.098Z,15.00
2018-07-22T02:39:13.098Z,16.03
2018-07-22T02:41:41.468Z,16.87
2018-07-22T02:44:09.850Z,16.33
2018-07-22T02:46:37.941Z,16.03
2018-07-22T02:49:06.311Z,15.53
2018-07-22T02:51:34.287Z,16.23
2018-07-22T02:54:02.428Z,14.90
2018-07-22T02:56:30.554Z,16.23
2018-07-22T02:59:03.134Z,16.60
2018-07-22T03:01:32.171Z,16.30
2018-07-22T03:04:00.374Z,15.90
2018-07-22T03:06:28.526Z,16.13
2018-07-22T03:08:56.714Z,16.87
2018-07-22T03:11:24.875Z,16.13
2018-07-22T03:13:53.028Z,15.20
2018-07-22T03:16:21.170Z,16.93
2018-07-22T03:18:49.324Z,16.57
2018-07-22T03:21:17.470Z,16.83
2018-07-22T03:23:45.619Z,16.60
2018-07-22T03:26:13.791Z,17.10
2018-07-22T03:28:41.710Z,16.30
2018-07-22T03:31:09.936Z,17.00
2018-07-22T03:33:38.065Z,16.90
2018-07-22T03:36:07.254Z,17.20
2018-07-22T03:38:35.415Z,18.00
2018-07-22T03:41:03.616Z,17.87
2018-07-22T03:43:31.790Z,16.73
2018-07-22T03:45:59.958Z,15.67
2018-07-22T03:48:28.107Z,17.47
2018-07-22T03:50:56.040Z,17.57
2018-07-22T03:53:24.161Z,17.60
2018-07-22T03:55:52.322Z,18.10
2018-07-22T03:58:20.469Z,17.50
2018-07-22T04:00:48.615Z,18.00
2018-07-22T04:03:16.750Z,17.90
2018-07-22T04:05:44.898Z,18.50
2018-07-22T04:08:13.018Z,18.00
2018-07-22T04:10:41.154Z,17.20
2018-07-22T04:13:09.288Z,17.60
2018-07-22T04:15:37.648Z,17.63
2018-07-22T04:18:05.866Z,16.53
2018-07-22T04:20:34.014Z,19.67
2018-07-22T04:23:02.155Z,17.30
2018-07-22T04:25:30.290Z,14.03
2018-07-22T04:27:58.502Z,18.30
2018-07-22T04:30:26.682Z,18.50
2018-07-22T04:32:54.826Z,17.60
2018-07-22T04:35:22.967Z,17.17
2018-07-22T04:37:51.263Z,17.30
2018-07-22T04:40:19.394Z,17.60
2018-07-22T04:42:47.527Z,17.10
2018-07-22T04:45:15.666Z,18.00
2018-07-22T04:47:43.794Z,17.20
2018-07-22T04:50:11.926Z,18.07
2018-07-22T04:52:40.066Z,15.93
2018-07-22T04:55:08.222Z,17.23
2018-07-22T04:57:36.350Z,18.13
2018-07-22T05:00:05.550Z,17.30
2018-07-22T05:02:33.713Z,17.60
2018-07-22T05:05:01.854Z,17.00
2018-07-22T05:07:29.988Z,17.63
2018-07-22T05:09:58.106Z,17.53
2018-07-22T05:12:26.238Z,18.03
2018-07-22T05:14:54.370Z,18.07
2018-07-22T05:17:22.485Z,17.93
2018-07-22T05:19:50.611Z,17.20
2018-07-22T05:22:18.745Z,16.53
2018-07-22T05:24:46.899Z,15.73
2018-07-22T05:27:15.146Z,16.47
2018-07-22T05:29:43.257Z,15.97
2018-07-22T05:32:11.418Z,16.77
2018-07-22T05:34:39.569Z,16.37
2018-07-22T05:37:07.732Z,17.40
2018-07-22T05:39:35.861Z,13.00
2018-07-22T05:42:04.023Z,15.33
2018-07-22T05:44:32.170Z,16.00
2018-07-22T05:47:00.346Z,14.97
2018-07-22T05:49:28.490Z,15.60
2018-07-22T05:51:56.658Z,15.00
2018-07-22T05:54:24.800Z,15.10
2018-07-22T05:56:52.955Z,14.73
2018-07-22T05:59:21.290Z,12.13
2018-07-22T06:01:49.450Z,14.50
2018-07-22T06:04:17.616Z,14.57
2018-07-22T06:06:45.825Z,13.70
2018-07-22T06:09:13.966Z,11.87
2018-07-22T06:11:42.163Z,12.70
2018-07-22T06:14:10.274Z,14.70
2018-07-22T06:16:38.493Z,13.40
2018-07-22T06:19:06.602Z,13.67
2018-07-22T06:21:34.766Z,12.57
2018-07-22T06:24:03.039Z,13.37
2018-07-22T06:26:31.204Z,13.57
2018-07-22T06:28:59.341Z,13.00
2018-07-22T06:31:27.566Z,12.27
2018-07-22T06:33:55.711Z,12.90
2018-07-22T06:36:23.641Z,13.40
2018-07-22T06:38:51.790Z,12.80
2018-07-22T06:41:19.983Z,13.20
2018-07-22T06:43:48.145Z,14.53
2018-07-22T06:46:16.338Z,13.70
2018-07-22T06:48:44.482Z,11.77
2018-07-22T06:51:12.648Z,13.43
2018-07-22T06:53:40.895Z,13.87
2018-07-22T06:56:08.737Z,12.23
2018-07-22T06:58:36.890Z,13.40
2018-07-22T07:01:05.036Z,13.20
2018-07-22T07:03:33.194Z,11.20
2018-07-22T07:06:01.342Z,11.70
2018-07-22T07:08:29.526Z,12.30
2018-07-22T07:10:57.684Z,12.47
2018-07-22T07:13:25.814Z,7.60
2018-07-22T07:15:53.950Z,8.70
2018-07-22T07:18:22.162Z,12.13
2018-07-22T07:20:50.377Z,9.80
2018-07-22T07:23:18.454Z,7.10
2018-07-22T07:25:46.390Z,11.73
2018-07-22T07:28:14.553Z,11.17
2018-07-22T07:30:42.699Z,10.17
2018-07-22T07:33:10.875Z,12.17
2018-07-22T07:35:39.006Z,10.60
2018-07-22T07:38:07.163Z,11.10
2018-07-22T07:40:35.302Z,8.33
2018-07-22T07:43:03.446Z,8.50
2018-07-22T07:45:31.582Z,7.27
2018-07-22T07:47:59.734Z,9.40
2018-07-22T07:50:27.861Z,6.90
2018-07-22T07:52:56.012Z,5.77
2018-07-22T07:55:24.437Z,8.90
2018-07-22T07:57:52.610Z,5.90
2018-07-22T08:00:20.756Z,4.90
2018-07-22T08:02:48.910Z,5.50
2018-07-22T08:05:17.087Z,6.37
2018-07-22T08:07:45.239Z,5.70
2018-07-22T08:10:13.373Z,7.40
2018-07-22T08:12:41.525Z,5.70
2018-07-22T08:15:09.677Z,7.80
2018-07-22T08:17:37.823Z,7.20
2018-07-22T08:20:06.248Z,5.53
2018-07-22T08:22:34.390Z,7.50
2018-07-22T08:25:02.558Z,5.93
2018-07-22T08:27:30.687Z,6.03
2018-07-22T08:29:58.838Z,6.13
2018-07-22T08:32:26.974Z,6.80
2018-07-22T08:34:55.121Z,5.00
2018-07-22T08:37:23.254Z,5.43
2018-07-22T08:39:51.403Z,5.87
2018-07-22T08:42:19.554Z,5.00
2018-07-22T08:44:47.695Z,5.93
2018-07-22T08:47:15.825Z,5.83
2018-07-22T08:49:43.970Z,6.40
2018-07-22T08:52:12.102Z,5.40
2018-07-22T08:54:40.249Z,5.37
2018-07-22T08:57:08.390Z,5.63
2018-07-22T08:59:36.549Z,6.87
2018-07-22T09:02:04.743Z,6.20
2018-07-22T09:04:32.638Z,5.77
2018-07-22T09:07:00.765Z,5.40
2018-07-22T09:09:28.908Z,5.20
2018-07-22T09:11:57.023Z,5.53
2018-07-22T09:14:25.141Z,5.30
2018-07-22T09:16:53.263Z,5.70
2018-07-22T09:19:21.432Z,5.50
2018-07-22T09:21:49.550Z,5.10
2018-07-22T09:24:17.674Z,5.43
2018-07-22T09:26:45.790Z,6.13
2018-07-22T09:29:13.917Z,4.87
2018-07-22T09:31:42.034Z,5.60
2018-07-22T09:34:10.149Z,4.73
2018-07-22T09:36:38.315Z,6.43
2018-07-22T09:39:09.038Z,5.80
2018-07-22T09:41:37.179Z,5.27
2018-07-22T09:44:05.350Z,4.97
2018-07-22T09:46:33.458Z,4.50
2018-07-22T09:49:01.588Z,4.57
2018-07-22T09:51:29.865Z,5.20
2018-07-22T09:53:57.987Z,4.40
2018-07-22T09:56:26.096Z,4.50
2018-07-22T09:58:54.226Z,4.73
2018-07-22T10:01:22.343Z,4.87
2018-07-22T10:03:50.470Z,5.53
2018-07-22T10:06:18.581Z,4.50
2018-07-22T10:08:46.695Z,5.13
2018-07-22T10:11:14.847Z,4.73
2018-07-22T10:13:42.946Z,5.23
2018-07-22T10:16:11.069Z,4.83
2018-07-22T10:18:39.207Z,5.70
2018-07-22T10:21:07.312Z,5.33
2018-07-22T10:23:35.433Z,5.20
2018-07-22T10:26:03.549Z,5.37
2018-07-22T10:28:31.677Z,4.77
2018-07-22T10:30:59.818Z,5.23
2018-07-22T10:33:27.942Z,4.90
2018-07-22T10:35:56.160Z,5.10
2018-07-22T10:38:24.078Z,5.50
2018-07-22T10:40:52.257Z,4.90
2018-07-22T10:43:20.381Z,5.10
2018-07-22T10:45:48.522Z,5.70
2018-07-22T10:48:16.633Z,4.77
2018-07-22T10:50:44.771Z,5.90
2018-07-22T10:53:12.949Z,8.17
2018-07-22T10:55:41.022Z,5.50
2018-07-22T10:58:09.295Z,6.00
2018-07-22T11:00:37.429Z,12.80
2018-07-22T11:03:06.670Z,7.90
2018-07-22T11:05:34.813Z,7.87
2018-07-22T11:08:02.950Z,6.50
2018-07-22T11:10:31.101Z,7.33
2018-07-22T11:12:59.234Z,9.57
2018-07-22T11:15:27.370Z,7.00
2018-07-22T11:17:55.343Z,11.67
2018-07-22T11:20:23.551Z,7.53
2018-07-22T11:22:51.729Z,8.10
2018-07-22T11:25:19.874Z,6.50
2018-07-22T11:27:48.002Z,6.87
2018-07-22T11:30:16.145Z,8.17
2018-07-22T11:32:44.274Z,8.10
2018-07-22T11:35:12.422Z,10.07
2018-07-22T11:37:40.649Z,7.57
2018-07-22T11:40:08.805Z,7.80
2018-07-22T11:42:36.982Z,8.23
2018-07-22T11:45:05.172Z,8.43
2018-07-22T11:47:33.322Z,8.50
2018-07-22T11:50:01.475Z,5.93
2018-07-22T11:52:29.614Z,6.60
2018-07-22T11:54:57.745Z,7.53
2018-07-22T11:57:25.923Z,6.63
2018-07-22T11:59:54.042Z,6.90
2018-07-22T12:02:22.170Z,6.37
2018-07-22T12:04:50.295Z,6.30
2018-07-22T12:07:18.454Z,6.63
2018-07-22T12:09:46.537Z,7.10
2018-07-22T12:12:14.656Z,6.33
2018-07-22T12:14:42.790Z,6.43
2018-07-22T12:17:10.906Z,6.63
2018-07-22T12:19:39.039Z,5.77
2018-07-22T12:22:07.157Z,6.40
2018-07-22T12:24:35.274Z,5.87
2018-07-22T12:27:03.395Z,5.50
2018-07-22T12:29:31.514Z,6.00
2018-07-22T12:31:59.730Z,6.40
2018-07-22T12:34:27.947Z,5.33
2018-07-22T12:36:56.015Z,6.93
2018-07-22T12:39:24.177Z,6.87
2018-07-22T12:41:52.281Z,5.73
2018-07-22T12:44:20.630Z,6.30
2018-07-22T12:46:48.745Z,6.23
2018-07-22T12:49:16.865Z,6.60
2018-07-22T12:51:45.003Z,5.60
2018-07-22T12:54:13.122Z,6.40
2018-07-22T12:56:41.247Z,6.33
2018-07-22T12:59:09.362Z,5.93
2018-07-22T13:01:37.490Z,5.97
2018-07-22T13:04:05.913Z,6.37
2018-07-22T13:06:34.054Z,7.13
2018-07-22T13:09:02.209Z,6.93
2018-07-22T13:11:30.346Z,6.40
2018-07-22T13:13:58.482Z,6.40
2018-07-22T13:16:26.394Z,5.50
2018-07-22T13:18:54.539Z,9.27
2018-07-22T13:21:22.666Z,6.87
2018-07-22T13:23:50.796Z,6.33
2018-07-22T13:26:18.934Z,6.50
2018-07-22T13:28:47.111Z,6.00
2018-07-22T13:31:15.250Z,6.07
2018-07-22T13:33:43.378Z,6.30
2018-07-22T13:36:11.530Z,5.60
2018-07-22T13:38:39.653Z,5.40
2018-07-22T13:41:07.806Z,5.67
2018-07-22T13:43:35.938Z,6.60
2018-07-22T13:46:04.081Z,6.70
2018-07-22T13:48:32.228Z,6.67
2018-07-22T13:51:00.352Z,6.80
2018-07-22T13:53:28.486Z,7.53
2018-07-22T13:55:56.646Z,6.00
2018-07-22T13:58:24.783Z,7.83
2018-07-22T14:00:52.909Z,6.80
2018-07-22T14:03:21.078Z,6.57
2018-07-22T14:05:49.235Z,6.97
2018-07-22T14:08:17.452Z,6.43
2018-07-22T14:10:45.582Z,8.40
2018-07-22T14:13:13.723Z,7.30
2018-07-22T14:15:41.881Z,7.10
2018-07-22T14:18:10.175Z,7.27
2018-07-22T14:20:38.317Z,6.93
2018-07-22T14:23:06.497Z,6.83
2018-07-22T14:25:34.628Z,6.77
2018-07-22T14:28:02.818Z,6.90
2018-07-22T14:30:30.910Z,7.37
2018-07-22T14:32:59.046Z,8.10
2018-07-22T14:35:27.178Z,6.60
2018-07-22T14:37:55.366Z,6.40
2018-07-22T14:40:23.518Z,6.70
2018-07-22T14:42:51.678Z,6.10
2018-07-22T14:45:19.797Z,6.40
2018-07-22T14:47:47.947Z,6.23
2018-07-22T14:50:16.070Z,7.03
2018-07-22T14:52:44.205Z,7.23
2018-07-22T14:55:12.343Z,6.23
2018-07-22T14:57:40.309Z,6.27
2018-07-22T15:00:08.777Z,6.97
2018-07-22T15:02:36.941Z,6.50
2018-07-22T15:05:05.296Z,6.23
2018-07-22T15:07:33.505Z,5.80
2018-07-22T15:10:01.601Z,4.60
2018-07-22T15:12:29.727Z,6.80
2018-07-22T15:14:58.054Z,8.47
2018-07-22T15:17:26.167Z,7.00
2018-07-22T15:19:54.278Z,7.00
2018-07-22T15:22:22.394Z,7.07
2018-07-22T15:24:50.514Z,6.27
2018-07-22T15:27:18.646Z,6.97
2018-07-22T15:29:46.753Z,6.57
2018-07-22T15:32:14.862Z,7.03
2018-07-22T15:34:43.011Z,6.30
2018-07-22T15:37:11.112Z,6.63
2018-07-22T15:39:39.231Z,6.77
2018-07-22T15:42:07.338Z,6.67
2018-07-22T15:44:35.462Z,7.20
2018-07-22T15:47:03.586Z,6.67
2018-07-22T15:49:31.717Z,7.73
2018-07-22T15:51:59.818Z,6.93
2018-07-22T15:54:27.933Z,6.77
2018-07-22T15:56:56.161Z,5.93
2018-07-22T15:59:24.270Z,4.07
2018-07-22T16:01:52.449Z,4.20
2018-07-22T16:04:20.585Z,5.77
2018-07-22T16:06:48.717Z,4.90
2018-07-22T16:09:16.892Z,5.60
2018-07-22T16:11:45.039Z,6.57
2018-07-22T16:14:13.213Z,6.67
2018-07-22T16:16:41.312Z,6.83
2018-07-22T16:19:09.450Z,6.20
2018-07-22T16:21:37.617Z,6.40
2018-07-22T16:24:05.762Z,6.30
2018-07-22T16:26:33.969Z,7.13
2018-07-22T16:29:02.115Z,5.57
2018-07-22T16:31:30.253Z,7.00
2018-07-22T16:33:58.396Z,6.47
2018-07-22T16:36:26.566Z,6.00
2018-07-22T16:38:54.662Z,6.60
2018-07-22T16:41:22.866Z,7.13
2018-07-22T16:43:50.998Z,7.50
2018-07-22T16:46:19.365Z,6.70
2018-07-22T16:48:47.550Z,7.00
2018-07-22T16:51:15.675Z,6.60
2018-07-22T16:53:43.918Z,6.70
2018-07-22T16:56:12.118Z,7.07
2018-07-22T16:58:40.266Z,7.03
2018-07-22T17:01:08.412Z,7.20
2018-07-22T17:03:36.539Z,6.80
2018-07-22T17:06:04.673Z,6.70
2018-07-22T17:08:32.797Z,6.70
2018-07-22T17:11:00.897Z,7.20
2018-07-22T17:13:29.005Z,6.73
2018-07-22T17:15:57.133Z,6.70
2018-07-22T17:18:25.250Z,7.43
2018-07-22T17:20:53.375Z,7.47
2018-07-22T17:23:21.500Z,7.63
2018-07-22T17:25:49.674Z,7.70
2018-07-22T17:28:17.786Z,7.40
2018-07-22T17:30:45.946Z,7.43
2018-07-22T17:33:14.565Z,7.80
2018-07-22T17:35:42.688Z,5.30
2018-07-22T17:38:10.834Z,7.77
2018-07-22T17:40:39.064Z,7.00
2018-07-22T17:43:07.400Z,8.03
2018-07-22T17:45:35.564Z,7.97
2018-07-22T17:48:03.686Z,7.83
2018-07-22T17:50:31.802Z,8.13
2018-07-22T17:52:59.917Z,6.90
2018-07-22T17:55:28.132Z,6.77
2018-07-22T17:57:56.238Z,7.43
2018-07-22T18:00:24.365Z,7.00
2018-07-22T18:03:09.102Z,7.57
2018-07-22T18:05:37.382Z,7.57
2018-07-22T18:08:06.014Z,7.47
2018-07-22T18:10:34.159Z,7.43
2018-07-22T18:13:02.266Z,7.10
2018-07-22T18:15:30.426Z,6.30
2018-07-22T18:17:58.551Z,6.97
2018-07-22T18:20:26.658Z,7.07
2018-07-22T18:22:54.838Z,6.50
2018-07-22T18:25:22.902Z,7.07
2018-07-22T18:27:51.022Z,7.20
2018-07-22T18:30:19.162Z,6.50
2018-07-22T18:32:47.273Z,6.77
2018-07-22T18:35:15.406Z,6.80
2018-07-22T18:37:43.521Z,6.53
2018-07-22T18:40:11.637Z,6.80
2018-07-22T18:42:39.762Z,6.87
2018-07-22T18:45:07.882Z,6.83
2018-07-22T18:47:36.002Z,7.43
2018-07-22T18:50:04.154Z,7.80
2018-07-22T18:52:32.534Z,6.07
2018-07-22T18:55:00.756Z,6.77
2018-07-22T18:57:28.774Z,6.83
2018-07-22T18:59:57.177Z,7.30
2018-07-22T19:02:25.562Z,6.53
2018-07-22T19:04:53.685Z,7.00
2018-07-22T19:07:21.830Z,6.30
2018-07-22T19:09:49.958Z,6.80
2018-07-22T19:12:18.070Z,7.30
2018-07-22T19:14:46.203Z,7.20
2018-07-22T19:17:14.333Z,7.50
2018-07-22T19:19:42.717Z,7.57
2018-07-22T19:22:10.854Z,6.77
2018-07-22T19:24:38.990Z,6.80
2018-07-22T19:27:07.102Z,7.63
2018-07-22T19:29:35.210Z,7.60
2018-07-22T19:32:03.398Z,7.60
2018-07-22T19:34:31.509Z,7.60
2018-07-22T19:36:59.628Z,7.63
2018-07-22T19:39:27.858Z,7.50
2018-07-22T19:41:55.993Z,8.17
2018-07-22T19:44:24.125Z,7.93
2018-07-22T19:46:52.254Z,7.80
2018-07-22T19:49:20.428Z,8.20
2018-07-22T19:51:48.573Z,8.33
2018-07-22T19:54:16.689Z,8.43
2018-07-22T19:56:44.843Z,8.03
2018-07-22T19:59:12.950Z,8.43
2018-07-22T20:01:42.246Z,7.97
2018-07-22T20:04:12.975Z,7.20
2018-07-22T20:06:41.877Z,6.27
2018-07-22T20:09:11.574Z,6.10
2018-07-22T20:11:40.067Z,5.80
2018-07-22T20:14:08.189Z,5.60
2018-07-22T20:16:36.330Z,5.77
2018-07-22T20:19:04.473Z,5.43
2018-07-22T20:21:32.799Z,4.93
2018-07-22T20:24:01.221Z,5.20
2018-07-22T20:26:29.314Z,5.37
2018-07-22T20:28:57.430Z,5.13
2018-07-22T20:31:25.581Z,4.60
2018-07-22T20:33:53.719Z,4.97
2018-07-22T20:36:21.841Z,4.73
2018-07-22T20:38:49.946Z,4.73
2018-07-22T20:41:18.139Z,5.00
2018-07-22T20:43:46.258Z,4.90
2018-07-22T20:46:14.378Z,4.97
2018-07-22T20:48:42.515Z,6.33
2018-07-22T20:51:10.672Z,7.17
2018-07-22T20:53:38.754Z,6.10
2018-07-22T20:56:06.873Z,8.07
2018-07-22T20:58:34.994Z,9.10
2018-07-22T21:01:03.199Z,8.10
2018-07-22T21:03:31.333Z,8.67
2018-07-22T21:05:59.493Z,9.17
2018-07-22T21:08:27.631Z,9.17
2018-07-22T21:10:55.747Z,9.40
2018-07-22T21:13:25.238Z,9.90
2018-07-22T21:15:53.371Z,9.00
2018-07-22T21:18:21.506Z,8.97
2018-07-22T21:20:49.617Z,9.37
2018-07-22T21:23:17.738Z,8.27
2018-07-22T21:25:45.853Z,9.17
2018-07-22T21:28:13.982Z,8.73
2018-07-22T21:30:42.103Z,8.60
2018-07-22T21:33:10.226Z,9.63
2018-07-22T21:35:38.351Z,9.73
2018-07-22T21:38:06.461Z,9.37
2018-07-22T21:40:34.578Z,8.53
2018-07-22T21:43:02.710Z,9.37
2018-07-22T21:45:30.817Z,9.97
2018-07-22T21:47:58.974Z,9.70
2018-07-22T21:50:27.118Z,8.93
2018-07-22T21:52:55.238Z,8.90
2018-07-22T21:55:23.370Z,9.80
2018-07-22T21:57:51.498Z,9.53
2018-07-22T22:00:23.346Z,8.70
2018-07-22T22:02:51.510Z,8.57
2018-07-22T22:05:19.740Z,9.00
2018-07-22T22:07:47.893Z,9.20
2018-07-22T22:10:16.023Z,9.30
2018-07-22T22:12:44.173Z,9.43
2018-07-22T22:15:17.814Z,9.47
2018-07-22T22:17:45.977Z,9.20
2018-07-22T22:20:14.124Z,9.40
2018-07-22T22:22:42.278Z,9.70
2018-07-22T22:25:10.418Z,8.80
2018-07-22T22:27:38.578Z,9.20
2018-07-22T22:30:06.950Z,8.63
2018-07-22T22:32:35.091Z,9.40
2018-07-22T22:35:03.227Z,8.37
2018-07-22T22:37:31.386Z,8.90
2018-07-22T22:39:59.538Z,9.30
2018-07-22T22:42:27.702Z,8.43
2018-07-22T22:44:55.847Z,9.43
2018-07-22T22:47:24.000Z,9.13
2018-07-22T22:49:52.167Z,7.77
2018-07-22T22:52:20.346Z,8.20
2018-07-22T22:54:48.501Z,8.90
2018-07-22T22:57:16.666Z,8.23
2018-07-22T22:59:44.814Z,8.67
2018-07-22T23:02:13.001Z,8.43
2018-07-22T23:04:41.149Z,8.50
2018-07-22T23:07:09.286Z,8.57
2018-07-22T23:09:37.430Z,9.17
2018-07-22T23:12:05.582Z,8.33
2018-07-22T23:14:33.767Z,8.50
2018-07-22T23:17:01.903Z,8.97
2018-07-22T23:19:30.122Z,9.90
2018-07-22T23:21:58.266Z,9.10
2018-07-22T23:24:26.416Z,8.03
2018-07-22T23:26:55.363Z,8.90
2018-07-22T23:29:23.526Z,9.30
2018-07-22T23:31:51.673Z,9.27
2018-07-22T23:34:19.859Z,9.30
2018-07-22T23:36:48.009Z,8.50
2018-07-22T23:39:16.225Z,8.60
2018-07-22T23:41:44.370Z,7.90
2018-07-22T23:44:12.526Z,8.47
2018-07-22T23:46:40.663Z,8.33
2018-07-22T23:49:08.810Z,8.60
2018-07-22T23:51:36.957Z,9.17
2018-07-22T23:54:05.122Z,9.27
2018-07-22T23:56:33.309Z,8.80
2018-07-22T23:59:01.470Z,8.57
